createdAt,value
2022-09-09T00:01:31.551Z,19.38
2022-09-09T00:02:33.639Z,18.67
2022-09-09T00:03:48.302Z,18.21
2022-09-09T00:05:19.886Z,17.76
2022-09-09T00:06:36.722Z,17.31
2022-09-09T00:07:54.034Z,17.31
2022-09-09T00:09:07.392Z,17.79
2022-09-09T00:10:22.109Z,18.34
2022-09-09T00:11:49.011Z,18.86
2022-09-09T00:13:33.015Z,19.31
2022-09-09T00:14:47.841Z,19.70
2022-09-09T00:16:26.120Z,19.89
2022-09-09T00:17:34.639Z,19.54
2022-09-09T00:18:59.673Z,19.02
2022-09-09T00:20:21.894Z,18.37
2022-09-09T00:21:34.074Z,17.84
2022-09-09T00:22:43.440Z,17.50
2022-09-09T00:23:57.360Z,17.57
2022-09-09T00:25:24.544Z,18.04
2022-09-09T00:27:01.318Z,18.68
2022-09-09T00:28:02.953Z,19.22
2022-09-09T00:29:13.323Z,19.48
2022-09-09T00:30:24.813Z,19.71
2022-09-09T00:31:30.635Z,19.91
2022-09-09T00:32:36.627Z,19.92
2022-09-09T00:33:39.689Z,19.59
2022-09-09T00:34:59.766Z,19.12
2022-09-09T00:36:04.003Z,18.52
2022-09-09T00:37:09.343Z,18.08
2022-09-09T00:38:19.053Z,17.72
2022-09-09T00:39:38.682Z,17.55
2022-09-09T00:40:51.597Z,17.90
2022-09-09T00:42:19.444Z,18.42
2022-09-09T00:43:37.386Z,19.01
2022-09-09T00:44:40.587Z,19.38
2022-09-09T00:45:57.108Z,19.62
2022-09-09T00:47:10.596Z,19.87
2022-09-09T00:48:13.262Z,20.03
2022-09-09T00:49:21.158Z,19.88
2022-09-09T00:50:26.859Z,19.45
2022-09-09T00:51:37.555Z,18.97
2022-09-09T00:52:52.395Z,18.47
2022-09-09T00:54:49.444Z,17.99
2022-09-09T00:56:12.913Z,17.69
2022-09-09T00:57:24.771Z,18.16
2022-09-09T00:58:28.575Z,18.71
2022-09-09T00:59:51.638Z,19.10
2022-09-09T01:01:13.976Z,19.51
2022-09-09T01:03:00.194Z,19.84
2022-09-09T01:04:17.115Z,20.12
2022-09-09T01:05:34.186Z,19.86
2022-09-09T01:06:39.508Z,19.33
2022-09-09T01:07:48.812Z,18.87
2022-09-09T01:08:59.263Z,18.39
2022-09-09T01:10:15.170Z,17.98
2022-09-09T01:11:37.318Z,17.74
2022-09-09T01:12:44.779Z,18.07
2022-09-09T01:14:02.662Z,18.61
2022-09-09T01:15:27.205Z,19.10
2022-09-09T01:16:32.507Z,19.55
2022-09-09T01:17:50.807Z,19.82
2022-09-09T01:18:55.703Z,20.08
2022-09-09T01:20:10.347Z,20.12
2022-09-09T01:21:33.828Z,19.69
2022-09-09T01:22:51.349Z,19.14
2022-09-09T01:24:20.553Z,18.62
2022-09-09T01:26:13.708Z,17.99
2022-09-09T01:27:19.228Z,17.79
2022-09-09T01:28:27.504Z,18.10
2022-09-09T01:29:33.874Z,18.65
2022-09-09T01:30:40.215Z,19.07
2022-09-09T01:32:00.105Z,19.46
2022-09-09T01:33:03.613Z,19.78
2022-09-09T01:34:15.583Z,20.00
2022-09-09T01:35:37.974Z,20.13
2022-09-09T01:36:54.180Z,19.83
2022-09-09T01:37:55.985Z,19.30
2022-09-09T01:38:58.446Z,18.87
2022-09-09T01:40:00.437Z,18.45
2022-09-09T01:41:02.827Z,18.07
2022-09-09T01:42:17.204Z,17.78
2022-09-09T01:43:22.513Z,17.93
2022-09-09T01:44:27.600Z,18.37
2022-09-09T01:45:29.950Z,18.85
2022-09-09T01:46:31.875Z,19.24
2022-09-09T01:47:36.111Z,19.55
2022-09-09T01:48:46.738Z,19.84
2022-09-09T01:49:48.521Z,20.07
2022-09-09T01:50:56.834Z,20.20
2022-09-09T01:51:59.664Z,20.02
2022-09-09T01:53:10.446Z,19.57
2022-09-09T01:54:12.447Z,19.12
2022-09-09T01:55:15.092Z,18.71
2022-09-09T01:56:26.076Z,18.31
2022-09-09T01:58:07.508Z,17.91
2022-09-09T01:59:34.226Z,17.75
2022-09-09T02:00:51.932Z,18.25
2022-09-09T02:02:31.169Z,18.86
2022-09-09T02:04:01.200Z,19.53
2022-09-09T02:05:14.013Z,19.77
2022-09-09T02:06:32.683Z,19.98
2022-09-09T02:07:48.607Z,20.11
2022-09-09T02:09:08.334Z,19.78
2022-09-09T02:10:20.500Z,19.33
2022-09-09T02:11:29.981Z,18.75
2022-09-09T02:12:43.976Z,18.26
2022-09-09T02:13:48.901Z,17.81
2022-09-09T02:14:58.642Z,17.54
2022-09-09T02:16:10.183Z,17.69
2022-09-09T02:17:19.834Z,18.15
2022-09-09T02:19:28.813Z,19.00
2022-09-09T02:20:39.591Z,19.36
2022-09-09T02:21:45.822Z,19.60
2022-09-09T02:22:52.207Z,19.79
2022-09-09T02:23:59.710Z,19.95
2022-09-09T02:25:06.392Z,20.08
2022-09-09T02:26:14.205Z,19.96
2022-09-09T02:27:19.513Z,19.55
2022-09-09T02:28:26.441Z,19.09
2022-09-09T02:29:42.274Z,18.63
2022-09-09T02:30:49.704Z,18.12
2022-09-09T02:31:58.962Z,17.79
2022-09-09T02:33:08.252Z,17.83
2022-09-09T02:34:22.790Z,18.28
2022-09-09T02:35:27.701Z,18.78
2022-09-09T02:36:35.186Z,19.19
2022-09-09T02:37:40.572Z,19.54
2022-09-09T02:38:51.658Z,19.81
2022-09-09T02:39:53.645Z,20.06
2022-09-09T02:40:56.960Z,20.21
2022-09-09T02:41:58.726Z,20.24
2022-09-09T02:43:07.369Z,19.92
2022-09-09T02:44:17.880Z,19.44
2022-09-09T02:45:26.238Z,18.91
2022-09-09T02:46:47.134Z,18.43
2022-09-09T02:48:04.710Z,17.95
2022-09-09T02:49:16.899Z,17.90
2022-09-09T02:50:27.016Z,18.29
2022-09-09T02:51:41.936Z,18.77
2022-09-09T02:52:51.272Z,19.20
2022-09-09T02:54:22.260Z,19.54
2022-09-09T02:55:33.182Z,19.84
2022-09-09T02:56:42.989Z,20.03
2022-09-09T02:57:49.459Z,20.19
2022-09-09T02:58:52.886Z,20.16
2022-09-09T02:59:59.138Z,19.83
2022-09-09T03:01:03.876Z,19.37
2022-09-09T03:02:06.087Z,18.92
2022-09-09T03:03:12.217Z,18.51
2022-09-09T03:04:14.821Z,18.12
2022-09-09T03:05:16.746Z,17.97
2022-09-09T03:06:18.460Z,18.18
2022-09-09T03:07:23.053Z,18.64
2022-09-09T03:08:25.263Z,19.06
2022-09-09T03:09:28.249Z,19.43
2022-09-09T03:10:30.223Z,19.72
2022-09-09T03:11:32.365Z,19.94
2022-09-09T03:12:34.627Z,20.13
2022-09-09T03:13:36.541Z,20.28
2022-09-09T03:14:39.482Z,20.33
2022-09-09T03:15:41.691Z,20.08
2022-09-09T03:16:45.266Z,19.63
2022-09-09T03:17:47.240Z,19.17
2022-09-09T03:18:49.402Z,18.74
2022-09-09T03:19:53.624Z,18.36
2022-09-09T03:20:55.364Z,18.05
2022-09-09T03:21:57.520Z,18.10
2022-09-09T03:23:01.161Z,18.47
2022-09-09T03:24:04.342Z,18.94
2022-09-09T03:25:06.858Z,19.36
2022-09-09T03:26:09.256Z,19.71
2022-09-09T03:27:15.584Z,20.01
2022-09-09T03:28:17.347Z,20.21
2022-09-09T03:29:19.583Z,20.36
2022-09-09T03:30:22.722Z,20.45
2022-09-09T03:31:25.175Z,20.27
2022-09-09T03:32:27.471Z,19.87
2022-09-09T03:33:30.522Z,19.39
2022-09-09T03:34:32.512Z,18.93
2022-09-09T03:35:34.500Z,18.53
2022-09-09T03:36:36.780Z,18.17
2022-09-09T03:37:39.997Z,18.10
2022-09-09T03:38:42.904Z,18.41
2022-09-09T03:39:45.095Z,18.84
2022-09-09T03:40:56.445Z,19.24
2022-09-09T03:41:58.423Z,19.63
2022-09-09T03:43:00.560Z,19.91
2022-09-09T03:44:02.482Z,20.13
2022-09-09T03:45:10.330Z,20.32
2022-09-09T03:46:12.535Z,20.45
2022-09-09T03:47:14.824Z,20.34
2022-09-09T03:48:17.937Z,19.95
2022-09-09T03:49:21.187Z,19.47
2022-09-09T03:50:23.109Z,19.01
2022-09-09T03:51:25.473Z,18.62
2022-09-09T03:52:27.447Z,18.26
2022-09-09T03:53:29.857Z,18.19
2022-09-09T03:54:31.607Z,18.50
2022-09-09T03:55:33.828Z,18.95
2022-09-09T03:56:36.486Z,19.37
2022-09-09T03:57:38.829Z,19.73
2022-09-09T03:58:42.951Z,20.04
2022-09-09T03:59:46.044Z,20.26
2022-09-09T04:00:59.674Z,20.44
2022-09-09T04:02:03.284Z,20.58
2022-09-09T04:03:05.001Z,20.39
2022-09-09T04:04:06.737Z,19.99
2022-09-09T04:05:08.982Z,19.52
2022-09-09T04:06:13.452Z,19.09
2022-09-09T04:07:16.906Z,18.67
2022-09-09T04:08:19.974Z,18.32
2022-09-09T04:09:21.994Z,18.27
2022-09-09T04:10:24.239Z,18.61
2022-09-09T04:11:26.892Z,19.06
2022-09-09T04:12:29.098Z,19.48
2022-09-09T04:13:31.654Z,19.83
2022-09-09T04:14:33.872Z,20.14
2022-09-09T04:15:36.632Z,20.37
2022-09-09T04:16:38.705Z,20.58
2022-09-09T04:17:40.646Z,20.72
2022-09-09T04:18:43.097Z,20.64
2022-09-09T04:19:44.884Z,20.27
2022-09-09T04:20:51.119Z,19.80
2022-09-09T04:21:53.950Z,19.32
2022-09-09T04:22:56.466Z,18.91
2022-09-09T04:23:58.625Z,18.55
2022-09-09T04:25:00.648Z,18.36
2022-09-09T04:26:05.120Z,18.61
2022-09-09T04:27:07.802Z,19.04
2022-09-09T04:28:10.791Z,19.47
2022-09-09T04:29:12.517Z,19.84
2022-09-09T04:30:15.504Z,20.10
2022-09-09T04:31:24.567Z,20.30
2022-09-09T04:32:28.669Z,20.49
2022-09-09T04:33:33.658Z,20.62
2022-09-09T04:34:38.318Z,20.66
2022-09-09T04:35:44.605Z,20.40
2022-09-09T04:36:46.737Z,19.92
2022-09-09T04:37:49.559Z,19.44
2022-09-09T04:38:52.354Z,18.98
2022-09-09T04:39:54.072Z,18.58
2022-09-09T04:40:55.877Z,18.26
2022-09-09T04:41:57.831Z,18.30
2022-09-09T04:43:01.606Z,18.65
2022-09-09T04:44:04.737Z,19.05
2022-09-09T04:45:08.207Z,19.41
2022-09-09T04:46:10.558Z,19.70
2022-09-09T04:47:13.007Z,19.93
2022-09-09T04:48:15.211Z,20.12
2022-09-09T04:49:16.929Z,20.28
2022-09-09T04:50:19.681Z,20.39
2022-09-09T04:51:22.739Z,20.50
2022-09-09T04:52:24.649Z,20.61
2022-09-09T04:53:27.246Z,20.72
2022-09-09T04:54:29.608Z,20.83
2022-09-09T04:55:32.235Z,20.93
2022-09-09T04:56:34.091Z,20.94
2022-09-09T04:57:36.077Z,20.67
2022-09-09T04:58:39.316Z,20.22
2022-09-09T04:59:41.466Z,19.72
2022-09-09T05:00:43.411Z,19.29
2022-09-09T05:01:45.169Z,18.95
2022-09-09T05:02:48.625Z,18.90
2022-09-09T05:03:50.669Z,19.22
2022-09-09T05:04:55.007Z,19.65
2022-09-09T05:06:05.188Z,20.05
2022-09-09T05:07:07.632Z,20.41
2022-09-09T05:08:10.149Z,20.66
2022-09-09T05:09:11.850Z,20.83
2022-09-09T05:10:17.580Z,20.99
2022-09-09T05:11:25.218Z,21.14
2022-09-09T05:12:28.126Z,21.27
2022-09-09T05:13:32.970Z,21.35
2022-09-09T05:14:37.308Z,21.37
2022-09-09T05:15:39.558Z,21.11
2022-09-09T05:16:41.673Z,20.67
2022-09-09T05:17:43.703Z,20.19
2022-09-09T05:18:47.085Z,19.74
2022-09-09T05:19:50.156Z,19.35
2022-09-09T05:20:52.238Z,19.29
2022-09-09T05:21:54.064Z,19.54
2022-09-09T05:22:59.585Z,19.93
2022-09-09T05:24:03.459Z,20.30
2022-09-09T05:25:05.973Z,20.60
2022-09-09T05:26:17.041Z,20.85
2022-09-09T05:27:20.954Z,21.10
2022-09-09T05:28:23.439Z,21.28
2022-09-09T05:29:25.272Z,21.43
2022-09-09T05:30:27.369Z,21.55
2022-09-09T05:31:31.478Z,21.67
2022-09-09T05:32:35.315Z,21.80
2022-09-09T05:33:37.283Z,21.91
2022-09-09T05:34:40.367Z,21.99
2022-09-09T05:35:42.361Z,22.04
2022-09-09T05:36:44.152Z,22.08
2022-09-09T05:37:47.052Z,22.13
2022-09-09T05:38:50.912Z,22.08
2022-09-09T05:39:52.776Z,21.76
2022-09-09T05:40:54.767Z,21.29
2022-09-09T05:41:57.073Z,20.80
2022-09-09T05:43:00.969Z,20.34
2022-09-09T05:44:02.907Z,19.99
2022-09-09T05:45:08.597Z,20.02
2022-09-09T05:46:13.575Z,20.33
2022-09-09T05:47:16.259Z,20.69
2022-09-09T05:48:18.491Z,21.00
2022-09-09T05:49:21.375Z,21.27
2022-09-09T05:50:23.573Z,21.47
2022-09-09T05:51:31.256Z,21.64
2022-09-09T05:52:34.134Z,21.80
2022-09-09T05:53:36.619Z,21.92
2022-09-09T05:54:38.872Z,22.03
2022-09-09T05:55:40.610Z,22.13
2022-09-09T05:56:42.818Z,22.22
2022-09-09T05:57:49.726Z,22.29
2022-09-09T05:58:52.728Z,22.36
2022-09-09T05:59:54.704Z,22.40
2022-09-09T06:01:09.235Z,22.46
2022-09-09T06:02:11.098Z,22.51
2022-09-09T06:03:13.314Z,22.54
2022-09-09T06:04:15.998Z,22.41
2022-09-09T06:05:17.730Z,22.02
2022-09-09T06:06:37.622Z,21.53
2022-09-09T06:07:43.009Z,20.93
2022-09-09T06:08:46.302Z,20.52
2022-09-09T06:09:48.525Z,20.42
2022-09-09T06:10:50.177Z,20.64
2022-09-09T06:11:52.231Z,20.98
2022-09-09T06:12:54.752Z,21.32
2022-09-09T06:13:56.713Z,21.59
2022-09-09T06:14:58.382Z,21.81
2022-09-09T06:16:00.798Z,21.98
2022-09-09T06:17:03.634Z,22.14
2022-09-09T06:18:05.796Z,22.26
2022-09-09T06:19:07.865Z,22.37
2022-09-09T06:20:10.351Z,22.46
2022-09-09T06:21:20.905Z,22.54
2022-09-09T06:22:22.877Z,22.62
2022-09-09T06:23:25.698Z,22.68
2022-09-09T06:24:27.339Z,22.75
2022-09-09T06:25:29.659Z,22.78
2022-09-09T06:26:36.876Z,22.81
2022-09-09T06:27:38.914Z,22.84
2022-09-09T06:28:40.777Z,22.64
2022-09-09T06:29:42.406Z,22.21
2022-09-09T06:30:44.197Z,21.70
2022-09-09T06:31:46.104Z,21.18
2022-09-09T06:32:50.944Z,20.71
2022-09-09T06:33:56.090Z,20.41
2022-09-09T06:34:59.524Z,20.49
2022-09-09T06:36:03.098Z,20.78
2022-09-09T06:37:05.593Z,21.12
2022-09-09T06:38:12.053Z,21.41
2022-09-09T06:39:15.277Z,21.62
2022-09-09T06:40:17.215Z,21.81
2022-09-09T06:41:22.368Z,21.97
2022-09-09T06:42:24.335Z,22.08
2022-09-09T06:43:48.843Z,22.22
2022-09-09T06:44:51.663Z,22.33
2022-09-09T06:46:11.457Z,22.43
2022-09-09T06:47:13.753Z,22.51
2022-09-09T06:48:15.893Z,22.57
2022-09-09T06:49:17.539Z,22.62
2022-09-09T06:50:19.283Z,22.69
2022-09-09T06:51:23.276Z,22.76
2022-09-09T06:52:25.863Z,22.81
2022-09-09T06:53:30.791Z,22.87
2022-09-09T06:54:33.012Z,22.92
2022-09-09T06:55:34.680Z,22.97
2022-09-09T06:56:40.729Z,23.02
2022-09-09T06:57:45.633Z,23.07
2022-09-09T06:58:53.316Z,23.11
2022-09-09T06:59:59.679Z,22.96
2022-09-09T07:01:08.609Z,22.55
2022-09-09T07:02:11.015Z,22.01
2022-09-09T07:03:13.107Z,21.54
2022-09-09T07:04:15.306Z,21.09
2022-09-09T07:05:18.923Z,20.80
2022-09-09T07:06:26.370Z,20.89
2022-09-09T07:07:28.362Z,21.22
2022-09-09T07:08:32.256Z,21.57
2022-09-09T07:09:33.962Z,21.90
2022-09-09T07:10:35.594Z,22.16
2022-09-09T07:11:42.974Z,22.40
2022-09-09T07:12:45.581Z,22.64
2022-09-09T07:13:48.354Z,22.82
2022-09-09T07:14:50.398Z,22.97
2022-09-09T07:15:53.533Z,23.08
2022-09-09T07:16:59.335Z,23.16
2022-09-09T07:18:02.669Z,23.25
2022-09-09T07:19:05.618Z,23.33
2022-09-09T07:20:08.006Z,23.41
2022-09-09T07:21:14.621Z,23.44
2022-09-09T07:22:17.110Z,23.18
2022-09-09T07:23:18.883Z,22.70
2022-09-09T07:24:20.654Z,22.22
2022-09-09T07:25:22.949Z,21.77
2022-09-09T07:26:28.478Z,21.38
2022-09-09T07:27:31.172Z,21.15
2022-09-09T07:28:33.419Z,21.31
2022-09-09T07:29:35.487Z,21.66
2022-09-09T07:30:37.308Z,22.02
2022-09-09T07:31:41.131Z,22.33
2022-09-09T07:32:46.623Z,22.63
2022-09-09T07:33:49.389Z,22.84
2022-09-09T07:34:51.897Z,23.03
2022-09-09T07:35:53.945Z,23.19
2022-09-09T07:36:55.626Z,23.31
2022-09-09T07:37:57.362Z,23.41
2022-09-09T07:39:03.235Z,23.50
2022-09-09T07:40:06.948Z,23.49
2022-09-09T07:41:14.674Z,23.22
2022-09-09T07:42:17.319Z,22.74
2022-09-09T07:43:19.991Z,22.26
2022-09-09T07:44:25.715Z,21.83
2022-09-09T07:45:35.781Z,21.38
2022-09-09T07:46:40.755Z,21.09
2022-09-09T07:47:43.501Z,21.17
2022-09-09T07:48:52.273Z,21.51
2022-09-09T07:49:54.521Z,21.94
2022-09-09T07:51:11.858Z,22.31
2022-09-09T07:52:15.857Z,22.65
2022-09-09T07:53:20.922Z,22.92
2022-09-09T07:54:24.608Z,23.12
2022-09-09T07:55:27.403Z,23.29
2022-09-09T07:56:31.006Z,23.42
2022-09-09T07:57:33.353Z,23.53
2022-09-09T07:58:38.437Z,23.63
2022-09-09T07:59:40.486Z,23.70
2022-09-09T08:00:44.566Z,23.52
2022-09-09T08:01:49.315Z,23.08
2022-09-09T08:02:55.103Z,22.62
2022-09-09T08:04:02.756Z,22.20
2022-09-09T08:05:07.069Z,21.80
2022-09-09T08:06:09.818Z,21.54
2022-09-09T08:07:11.706Z,21.64
2022-09-09T08:08:18.983Z,22.02
2022-09-09T08:09:22.343Z,22.43
2022-09-09T08:10:24.168Z,22.80
2022-09-09T08:11:29.998Z,23.09
2022-09-09T08:12:31.966Z,23.34
2022-09-09T08:13:35.642Z,23.52
2022-09-09T08:14:37.476Z,23.68
2022-09-09T08:15:39.619Z,23.80
2022-09-09T08:16:45.080Z,23.80
2022-09-09T08:17:47.385Z,23.49
2022-09-09T08:18:53.438Z,23.09
2022-09-09T08:19:55.237Z,22.64
2022-09-09T08:21:09.348Z,22.26
2022-09-09T08:22:11.263Z,21.89
2022-09-09T08:23:15.053Z,21.66
2022-09-09T08:24:17.764Z,21.77
2022-09-09T08:25:22.132Z,22.17
2022-09-09T08:26:27.717Z,22.60
2022-09-09T08:27:29.443Z,23.01
2022-09-09T08:28:31.992Z,23.33
2022-09-09T08:29:33.806Z,23.60
2022-09-09T08:30:35.471Z,23.82
2022-09-09T08:31:40.349Z,23.95
2022-09-09T08:32:45.536Z,23.80
2022-09-09T08:33:53.140Z,23.42
2022-09-09T08:35:01.124Z,22.95
2022-09-09T08:36:04.162Z,22.51
2022-09-09T08:37:06.493Z,22.16
2022-09-09T08:38:12.103Z,21.82
2022-09-09T08:39:16.684Z,21.60
2022-09-09T08:40:30.195Z,21.71
2022-09-09T08:41:51.961Z,22.16
2022-09-09T08:42:58.270Z,22.70
2022-09-09T08:44:08.745Z,23.09
2022-09-09T08:45:22.022Z,23.44
2022-09-09T08:46:40.551Z,23.74
2022-09-09T08:48:08.967Z,23.96
2022-09-09T08:49:59.488Z,23.75
2022-09-09T08:51:03.126Z,23.11
2022-09-09T08:52:17.514Z,22.74
2022-09-09T08:53:34.093Z,22.38
2022-09-09T08:54:51.714Z,22.06
2022-09-09T08:55:56.614Z,21.83
2022-09-09T08:57:04.415Z,22.00
2022-09-09T08:58:16.892Z,22.45
2022-09-09T08:59:20.162Z,23.03
2022-09-09T09:00:22.324Z,23.44
2022-09-09T09:01:42.897Z,23.76
2022-09-09T09:03:04.132Z,24.11
2022-09-09T09:04:45.625Z,24.15
2022-09-09T09:06:01.034Z,23.64
2022-09-09T09:07:05.862Z,23.17
2022-09-09T09:08:16.975Z,22.83
2022-09-09T09:09:38.282Z,22.50
2022-09-09T09:10:50.446Z,22.22
2022-09-09T09:12:01.686Z,22.00
2022-09-09T09:13:43.053Z,21.84
2022-09-09T09:14:49.050Z,22.20
2022-09-09T09:16:01.322Z,22.74
2022-09-09T09:17:12.105Z,23.33
2022-09-09T09:18:14.993Z,23.84
2022-09-09T09:19:19.012Z,24.18
2022-09-09T09:20:32.612Z,24.30
2022-09-09T09:22:08.074Z,24.11
2022-09-09T09:23:23.329Z,23.63
2022-09-09T09:24:45.485Z,23.27
2022-09-09T09:25:47.745Z,22.92
2022-09-09T09:26:49.562Z,22.69
2022-09-09T09:28:02.108Z,22.47
2022-09-09T09:29:17.337Z,22.21
2022-09-09T09:30:29.566Z,21.98
2022-09-09T09:31:33.405Z,21.74
2022-09-09T09:32:37.370Z,21.56
2022-09-09T09:33:50.766Z,21.67
2022-09-09T09:34:59.569Z,22.17
2022-09-09T09:36:03.766Z,22.70
2022-09-09T09:37:22.206Z,23.13
2022-09-09T09:40:05.493Z,23.94
2022-09-09T09:41:07.699Z,24.16
2022-09-09T09:42:20.352Z,24.05
2022-09-09T09:43:37.416Z,23.65
2022-09-09T09:44:43.155Z,23.21
2022-09-09T09:46:06.983Z,22.89
2022-09-09T09:47:15.335Z,22.57
2022-09-09T09:48:18.951Z,22.36
2022-09-09T09:49:20.622Z,22.20
2022-09-09T09:50:22.444Z,22.06
2022-09-09T09:51:29.784Z,21.93
2022-09-09T09:52:35.944Z,21.83
2022-09-09T09:53:40.166Z,21.76
2022-09-09T09:54:43.469Z,21.69
2022-09-09T09:56:25.133Z,21.66
2022-09-09T09:57:32.410Z,21.67
2022-09-09T09:58:47.410Z,21.95
2022-09-09T09:59:50.009Z,22.59
2022-09-09T10:00:58.405Z,23.23
2022-09-09T10:02:27.565Z,23.74
2022-09-09T10:03:41.405Z,24.15
2022-09-09T10:04:43.926Z,24.03
2022-09-09T10:05:48.874Z,23.76
2022-09-09T10:06:52.063Z,23.47
2022-09-09T10:08:15.634Z,23.23
2022-09-09T10:09:27.804Z,22.97
2022-09-09T10:10:49.531Z,22.73
2022-09-09T10:12:07.809Z,22.50
2022-09-09T10:13:25.017Z,22.29
2022-09-09T10:14:34.542Z,22.10
2022-09-09T10:15:54.963Z,21.98
2022-09-09T10:17:22.010Z,22.28
2022-09-09T10:18:29.412Z,22.99
2022-09-09T10:19:37.030Z,23.50
2022-09-09T10:21:06.222Z,23.98
2022-09-09T10:22:27.948Z,24.50
2022-09-09T10:23:48.259Z,24.88
2022-09-09T10:25:08.855Z,24.95
2022-09-09T10:26:13.424Z,24.62
2022-09-09T10:27:30.290Z,24.31
2022-09-09T10:28:57.492Z,23.99
2022-09-09T10:29:59.062Z,23.68
2022-09-09T10:31:15.551Z,23.49
2022-09-09T10:32:41.698Z,23.27
2022-09-09T10:33:56.901Z,23.07
2022-09-09T10:35:24.376Z,22.92
2022-09-09T10:36:27.226Z,22.77
2022-09-09T10:37:46.091Z,22.70
2022-09-09T10:39:03.377Z,22.66
2022-09-09T10:40:25.439Z,22.62
2022-09-09T10:41:51.491Z,22.57
2022-09-09T10:43:20.747Z,22.49
2022-09-09T10:44:50.748Z,22.41
2022-09-09T10:46:01.781Z,22.34
2022-09-09T10:47:12.766Z,22.33
2022-09-09T10:48:48.398Z,22.35
2022-09-09T10:49:58.962Z,22.44
2022-09-09T10:51:24.072Z,22.52
2022-09-09T10:52:53.120Z,22.95
2022-09-09T10:54:14.804Z,23.87
2022-09-09T10:55:20.759Z,24.66
2022-09-09T10:56:24.955Z,24.92
2022-09-09T10:57:33.077Z,24.89
2022-09-09T10:58:45.341Z,24.72
2022-09-09T10:59:57.819Z,24.53
2022-09-09T11:01:08.783Z,24.34
2022-09-09T11:02:10.399Z,24.17
2022-09-09T11:03:22.273Z,24.01
2022-09-09T11:04:33.648Z,23.85
2022-09-09T11:05:44.249Z,23.72
2022-09-09T11:06:53.301Z,23.59
2022-09-09T11:08:00.780Z,23.47
2022-09-09T11:09:05.994Z,23.34
2022-09-09T11:10:28.566Z,23.23
2022-09-09T11:11:45.730Z,23.16
2022-09-09T11:12:54.846Z,23.14
2022-09-09T11:14:37.406Z,23.14
2022-09-09T11:15:54.636Z,23.15
2022-09-09T11:17:10.090Z,23.17
2022-09-09T11:18:20.851Z,23.21
2022-09-09T11:19:42.091Z,23.27
2022-09-09T11:20:48.665Z,23.37
2022-09-09T11:21:53.027Z,23.45
2022-09-09T11:23:06.435Z,23.52
2022-09-09T11:24:20.234Z,23.54
2022-09-09T11:25:34.551Z,23.49
2022-09-09T11:26:53.593Z,23.44
2022-09-09T11:28:16.449Z,23.38
2022-09-09T11:29:45.232Z,23.34
2022-09-09T11:30:59.159Z,23.35
2022-09-09T11:32:28.458Z,23.39
2022-09-09T11:34:12.565Z,23.49
2022-09-09T11:35:29.010Z,23.65
2022-09-09T11:36:33.538Z,23.78
2022-09-09T11:38:09.105Z,23.89
2022-09-09T11:39:29.250Z,24.06
2022-09-09T11:40:33.725Z,24.18
2022-09-09T11:41:38.395Z,24.22
2022-09-09T11:42:40.102Z,24.24
2022-09-09T11:43:48.543Z,24.25
2022-09-09T11:44:51.850Z,24.28
2022-09-09T11:46:01.123Z,24.33
2022-09-09T11:47:03.278Z,24.43
2022-09-09T11:48:07.045Z,24.53
2022-09-09T11:49:29.203Z,24.63
2022-09-09T11:50:36.799Z,24.72
2022-09-09T11:51:38.594Z,24.77
2022-09-09T11:52:51.598Z,24.81
2022-09-09T11:54:15.662Z,24.88
2022-09-09T11:55:35.710Z,24.99
2022-09-09T11:56:46.003Z,25.13
2022-09-09T11:57:49.641Z,25.23
2022-09-09T11:59:21.731Z,25.32
2022-09-09T12:00:39.331Z,25.47
2022-09-09T12:01:44.951Z,25.60
2022-09-09T12:02:53.115Z,25.72
2022-09-09T12:04:17.427Z,25.82
2022-09-09T12:05:23.014Z,25.94
2022-09-09T12:06:33.028Z,26.00
2022-09-09T12:07:43.727Z,26.03
2022-09-09T12:08:53.978Z,26.03
2022-09-09T12:10:20.284Z,26.00
2022-09-09T12:11:29.678Z,25.93
2022-09-09T12:12:40.435Z,25.85
2022-09-09T12:13:57.209Z,25.82
2022-09-09T12:15:10.203Z,25.86
2022-09-09T12:16:39.453Z,25.94
2022-09-09T12:17:47.611Z,26.03
2022-09-09T12:18:49.423Z,26.08
2022-09-09T12:20:29.970Z,26.12
2022-09-09T12:21:47.195Z,26.20
2022-09-09T12:23:20.088Z,26.25
2022-09-09T12:24:57.495Z,26.29
2022-09-09T12:26:15.147Z,26.31
2022-09-09T12:27:24.850Z,26.23
2022-09-09T12:28:53.953Z,26.13
2022-09-09T12:30:03.305Z,26.00
2022-09-09T12:31:18.858Z,25.88
2022-09-09T12:32:25.766Z,25.75
2022-09-09T12:33:43.930Z,25.66
2022-09-09T12:34:53.251Z,25.54
2022-09-09T12:36:01.530Z,25.45
2022-09-09T12:37:15.092Z,25.36
2022-09-09T12:38:30.858Z,25.28
2022-09-09T12:39:43.040Z,25.22
2022-09-09T12:40:58.633Z,25.18
2022-09-09T12:42:00.490Z,25.11
2022-09-09T12:43:17.301Z,25.07
2022-09-09T12:44:18.889Z,24.95
2022-09-09T12:45:23.829Z,24.86
2022-09-09T12:46:55.247Z,24.76
2022-09-09T12:48:03.898Z,24.65
2022-09-09T12:49:07.394Z,24.59
2022-09-09T12:50:31.657Z,24.53
2022-09-09T12:51:35.209Z,24.47
2022-09-09T12:52:39.919Z,24.42
2022-09-09T12:53:41.653Z,24.41
2022-09-09T12:54:47.856Z,24.39
2022-09-09T12:55:58.360Z,24.39
2022-09-09T12:57:00.182Z,24.42
2022-09-09T12:58:06.486Z,24.44
2022-09-09T12:59:25.614Z,24.49
2022-09-09T13:00:28.043Z,24.52
2022-09-09T13:01:34.308Z,24.55
2022-09-09T13:02:36.646Z,24.57
2022-09-09T13:03:48.213Z,24.56
2022-09-09T13:04:51.474Z,24.53
2022-09-09T13:05:59.981Z,24.50
2022-09-09T13:07:10.973Z,24.48
2022-09-09T13:08:15.046Z,24.44
2022-09-09T13:10:36.754Z,24.40
2022-09-09T13:11:53.976Z,24.44
2022-09-09T13:12:55.624Z,24.51
2022-09-09T13:14:00.230Z,24.61
2022-09-09T13:15:03.364Z,24.73
2022-09-09T13:16:09.383Z,24.88
2022-09-09T13:17:25.429Z,25.09
2022-09-09T13:18:34.777Z,25.32
2022-09-09T13:19:40.737Z,25.49
2022-09-09T13:20:49.090Z,25.67
2022-09-09T13:21:51.341Z,25.88
2022-09-09T13:22:55.877Z,26.08
2022-09-09T13:23:57.736Z,26.29
2022-09-09T13:25:03.297Z,26.50
2022-09-09T13:26:19.898Z,26.73
2022-09-09T13:27:35.349Z,26.95
2022-09-09T13:28:37.008Z,27.14
2022-09-09T13:29:40.609Z,27.26
2022-09-09T13:30:43.876Z,27.36
2022-09-09T13:31:47.033Z,27.45
2022-09-09T13:32:48.767Z,27.56
2022-09-09T13:33:51.046Z,27.68
2022-09-09T13:34:58.183Z,27.81
2022-09-09T13:36:07.576Z,27.95
2022-09-09T13:37:43.308Z,28.07
2022-09-09T13:38:57.492Z,28.17
2022-09-09T13:39:59.507Z,28.18
2022-09-09T13:41:05.442Z,28.16
2022-09-09T13:42:20.755Z,28.12
2022-09-09T13:43:25.326Z,28.05
2022-09-09T13:44:35.492Z,27.99
2022-09-09T13:45:37.596Z,27.93
2022-09-09T13:46:41.826Z,27.90
2022-09-09T13:47:43.474Z,27.89
2022-09-09T13:48:55.499Z,27.83
2022-09-09T13:49:57.142Z,27.70
2022-09-09T13:51:02.055Z,27.58
2022-09-09T13:52:15.270Z,27.45
2022-09-09T13:53:16.867Z,27.31
2022-09-09T13:54:21.488Z,27.18
2022-09-09T13:55:25.822Z,27.03
2022-09-09T13:56:28.273Z,26.87
2022-09-09T13:57:29.962Z,26.72
2022-09-09T13:58:31.558Z,26.58
2022-09-09T14:00:04.176Z,26.50
2022-09-09T14:00:54.917Z,26.43
2022-09-09T14:01:57.947Z,26.41
2022-09-09T14:03:02.968Z,26.42
2022-09-09T14:04:07.431Z,26.45
2022-09-09T14:05:09.554Z,26.52
2022-09-09T14:06:12.313Z,26.60
2022-09-09T14:07:17.518Z,26.72
2022-09-09T14:08:26.580Z,26.83
2022-09-09T14:09:28.226Z,26.90
2022-09-09T14:10:29.818Z,26.95
2022-09-09T14:11:31.511Z,26.96
2022-09-09T14:12:33.183Z,26.97
2022-09-09T14:13:34.807Z,26.97
2022-09-09T14:14:37.106Z,27.00
2022-09-09T14:15:39.292Z,27.02
2022-09-09T14:16:41.327Z,27.05
2022-09-09T14:17:43.632Z,27.07
2022-09-09T14:18:46.453Z,27.09
2022-09-09T14:19:48.070Z,27.08
2022-09-09T14:20:51.293Z,27.04
2022-09-09T14:21:52.890Z,26.99
2022-09-09T14:22:54.633Z,26.93
2022-09-09T14:23:58.981Z,26.90
2022-09-09T14:25:00.844Z,26.86
2022-09-09T14:26:02.643Z,26.84
2022-09-09T14:27:04.257Z,26.81
2022-09-09T14:28:05.866Z,26.77
2022-09-09T14:29:07.533Z,26.72
2022-09-09T14:30:10.388Z,26.65
2022-09-09T14:31:12.077Z,26.56
2022-09-09T14:32:14.090Z,26.44
2022-09-09T14:33:17.150Z,26.33
2022-09-09T14:34:19.406Z,26.20
2022-09-09T14:35:21.028Z,26.09
2022-09-09T14:36:23.837Z,25.98
2022-09-09T14:37:25.579Z,25.87
2022-09-09T14:38:31.769Z,25.75
2022-09-09T14:39:33.447Z,25.63
2022-09-09T14:40:36.771Z,25.51
2022-09-09T14:41:38.905Z,25.39
2022-09-09T14:42:41.354Z,25.27
2022-09-09T14:43:43.359Z,25.16
2022-09-09T14:44:45.189Z,25.05
2022-09-09T14:45:49.023Z,24.94
2022-09-09T14:46:51.232Z,24.84